createdAt,value
2019-03-25T00:02:01.338Z,14.63
2019-03-25T00:04:31.310Z,18.43
2019-03-25T00:07:01.124Z,18.27
2019-03-25T00:09:31.062Z,16.10
2019-03-25T00:12:00.998Z,16.20
2019-03-25T00:14:30.853Z,16.90
2019-03-25T00:17:00.975Z,14.00
2019-03-25T00:19:31.005Z,14.20
2019-03-25T00:22:00.754Z,15.80
2019-03-25T00:24:38.762Z,13.17
2019-03-25T00:27:02.577Z,14.03
2019-03-25T00:29:32.421Z,13.47
2019-03-25T00:32:02.374Z,13.93
2019-03-25T00:34:32.318Z,13.87
2019-03-25T00:37:02.340Z,12.37
2019-03-25T00:39:32.154Z,10.50
2019-03-25T00:42:02.140Z,12.30
2019-03-25T00:44:32.024Z,13.40
2019-03-25T00:47:01.816Z,12.30
2019-03-25T00:49:31.574Z,10.13
2019-03-25T00:52:01.331Z,9.40
2019-03-25T00:54:31.345Z,9.10
2019-03-25T00:57:01.141Z,9.47
2019-03-25T00:59:30.949Z,8.30
2019-03-25T01:02:00.812Z,8.43
2019-03-25T01:04:30.619Z,6.50
2019-03-25T01:07:00.479Z,5.63
2019-03-25T01:09:30.435Z,5.80
2019-03-25T01:12:00.473Z,5.87
2019-03-25T01:14:30.288Z,4.27
2019-03-25T01:17:00.136Z,5.83
2019-03-25T01:19:30.249Z,6.27
2019-03-25T01:22:00.054Z,6.70
2019-03-25T01:24:29.843Z,6.27
2019-03-25T01:26:59.707Z,5.27
2019-03-25T01:29:29.615Z,4.97
2019-03-25T01:31:59.453Z,5.00
2019-03-25T01:34:29.248Z,5.10
2019-03-25T01:36:59.264Z,4.67
2019-03-25T01:39:29.082Z,5.10
2019-03-25T01:41:58.933Z,4.73
2019-03-25T01:44:28.940Z,4.50
2019-03-25T01:46:58.691Z,3.90
2019-03-25T01:49:28.518Z,4.43
2019-03-25T01:51:58.412Z,4.80
2019-03-25T01:54:28.133Z,3.40
2019-03-25T01:56:57.947Z,2.90
2019-03-25T01:59:27.853Z,3.80
2019-03-25T02:01:57.732Z,3.07
2019-03-25T02:04:27.689Z,4.37
2019-03-25T02:06:57.425Z,3.73
2019-03-25T02:09:27.266Z,3.33
2019-03-25T02:11:57.191Z,4.10
2019-03-25T02:14:26.956Z,3.40
2019-03-25T02:16:56.863Z,4.10
2019-03-25T02:19:26.810Z,3.67
2019-03-25T02:21:56.625Z,3.57
2019-03-25T02:24:26.513Z,3.43
2019-03-25T02:26:56.379Z,4.33
2019-03-25T02:29:26.259Z,4.30
2019-03-25T02:31:55.990Z,4.23
2019-03-25T02:34:25.754Z,4.00
2019-03-25T02:36:55.898Z,5.50
2019-03-25T02:39:25.906Z,5.60
2019-03-25T02:41:55.745Z,5.20
2019-03-25T02:44:25.694Z,5.83
2019-03-25T02:46:55.578Z,6.57
2019-03-25T02:49:25.436Z,5.60
2019-03-25T02:51:55.687Z,5.40
2019-03-25T02:54:25.533Z,5.93
2019-03-25T02:56:55.622Z,5.57
2019-03-25T02:59:25.487Z,4.87
2019-03-25T03:01:55.281Z,4.30
2019-03-25T03:04:25.070Z,3.73
2019-03-25T03:06:54.956Z,4.40
2019-03-25T03:09:24.933Z,4.37
2019-03-25T03:11:54.765Z,4.60
2019-03-25T03:14:24.700Z,4.37
2019-03-25T03:16:54.518Z,3.70
2019-03-25T03:19:24.346Z,3.73
2019-03-25T03:21:54.098Z,3.40
2019-03-25T03:24:24.034Z,4.83
2019-03-25T03:26:53.891Z,3.47
2019-03-25T03:29:23.646Z,3.00
2019-03-25T03:31:53.589Z,3.70
2019-03-25T03:34:23.401Z,4.03
2019-03-25T03:36:53.332Z,4.60
2019-03-25T03:39:23.305Z,3.40
2019-03-25T03:41:53.030Z,3.73
2019-03-25T03:44:22.880Z,3.33
2019-03-25T03:46:52.755Z,2.30
2019-03-25T03:49:22.606Z,4.20
2019-03-25T03:51:54.401Z,4.40
2019-03-25T03:54:24.303Z,3.97
2019-03-25T03:56:55.315Z,3.87
2019-03-25T03:59:25.847Z,3.67
2019-03-25T04:01:55.624Z,3.77
2019-03-25T04:04:25.477Z,4.13
2019-03-25T04:06:55.549Z,3.70
2019-03-25T04:09:25.427Z,4.20
2019-03-25T04:11:55.453Z,4.03
2019-03-25T04:14:25.328Z,3.40
2019-03-25T04:16:55.075Z,3.90
2019-03-25T04:19:24.888Z,4.73
2019-03-25T04:21:54.721Z,4.60
2019-03-25T04:24:24.569Z,3.60
2019-03-25T04:26:54.344Z,4.53
2019-03-25T04:29:24.329Z,4.20
2019-03-25T04:31:54.121Z,4.13
2019-03-25T04:34:24.103Z,5.93
2019-03-25T04:36:53.931Z,3.70
2019-03-25T04:39:23.707Z,3.83
2019-03-25T04:41:53.465Z,3.40
2019-03-25T04:44:23.277Z,3.47
2019-03-25T04:46:53.057Z,5.23
2019-03-25T04:49:23.049Z,5.37
2019-03-25T04:51:52.876Z,5.17
2019-03-25T04:54:22.740Z,3.83
2019-03-25T04:56:52.618Z,4.20
2019-03-25T04:59:22.480Z,4.20
2019-03-25T05:01:52.474Z,5.13
2019-03-25T05:04:22.651Z,4.30
2019-03-25T05:06:52.509Z,3.80
2019-03-25T05:09:22.522Z,4.30
2019-03-25T05:11:52.348Z,3.97
2019-03-25T05:14:22.301Z,3.43
2019-03-25T05:16:52.188Z,5.23
2019-03-25T05:19:22.010Z,3.97
2019-03-25T05:21:51.811Z,4.40
2019-03-25T05:24:21.534Z,4.20
2019-03-25T05:26:51.554Z,4.10
2019-03-25T05:29:21.374Z,4.10
2019-03-25T05:31:51.110Z,5.50
2019-03-25T05:34:20.969Z,4.33
2019-03-25T05:36:51.015Z,6.10
2019-03-25T05:39:20.860Z,5.30
2019-03-25T05:41:50.678Z,5.67
2019-03-25T05:44:20.541Z,5.00
2019-03-25T05:46:50.280Z,4.13
2019-03-25T05:49:20.240Z,4.57
2019-03-25T05:51:50.014Z,5.07
2019-03-25T05:54:19.851Z,5.27
2019-03-25T05:56:49.738Z,4.83
2019-03-25T05:59:19.600Z,4.37
2019-03-25T06:01:49.486Z,5.70
2019-03-25T06:04:19.347Z,5.80
2019-03-25T06:06:51.988Z,5.00
2019-03-25T06:09:20.921Z,5.43
2019-03-25T06:11:51.106Z,6.10
2019-03-25T06:14:21.114Z,5.50
2019-03-25T06:16:50.901Z,5.47
2019-03-25T06:19:20.710Z,5.87
2019-03-25T06:21:50.502Z,6.43
2019-03-25T06:24:20.321Z,5.23
2019-03-25T06:26:50.113Z,4.77
2019-03-25T06:29:20.149Z,5.27
2019-03-25T06:31:49.941Z,6.23
2019-03-25T06:34:19.798Z,6.20
2019-03-25T06:36:49.614Z,5.53
2019-03-25T06:39:19.679Z,7.23
2019-03-25T06:41:49.839Z,5.57
2019-03-25T06:44:19.692Z,5.83
2019-03-25T06:46:49.541Z,5.87
2019-03-25T06:49:19.302Z,5.93
2019-03-25T06:51:49.098Z,5.70
2019-03-25T06:54:18.818Z,6.50
2019-03-25T06:56:48.685Z,6.17
2019-03-25T06:59:18.552Z,6.23
2019-03-25T07:01:48.297Z,6.00
2019-03-25T07:04:18.401Z,6.53
2019-03-25T07:06:48.257Z,7.67
2019-03-25T07:09:18.782Z,4.83
2019-03-25T07:11:49.258Z,5.60
2019-03-25T07:14:19.144Z,6.23
2019-03-25T07:16:49.103Z,9.23
2019-03-25T07:19:18.829Z,6.57
2019-03-25T07:21:48.773Z,7.10
2019-03-25T07:24:18.585Z,6.40
2019-03-25T07:26:48.345Z,5.90
2019-03-25T07:29:18.304Z,5.57
2019-03-25T07:31:48.221Z,5.50
2019-03-25T07:34:18.000Z,5.07
2019-03-25T07:36:47.877Z,7.03
2019-03-25T07:39:17.801Z,5.63
2019-03-25T07:41:47.759Z,5.50
2019-03-25T07:44:17.942Z,6.07
2019-03-25T07:46:47.777Z,6.53
2019-03-25T07:49:17.732Z,5.63
2019-03-25T07:51:47.696Z,6.13
2019-03-25T07:54:17.574Z,6.27
2019-03-25T07:56:47.459Z,5.87
2019-03-25T07:59:20.072Z,5.17
2019-03-25T08:01:49.175Z,5.00
2019-03-25T08:04:19.165Z,5.10
2019-03-25T08:06:49.189Z,4.47
2019-03-25T08:09:18.952Z,5.40
2019-03-25T08:11:48.804Z,5.40
2019-03-25T08:14:18.814Z,5.90
2019-03-25T08:16:48.513Z,4.47
2019-03-25T08:19:18.408Z,5.27
2019-03-25T08:21:48.203Z,4.90
2019-03-25T08:24:18.115Z,3.90
2019-03-25T08:26:47.914Z,4.60
2019-03-25T08:29:17.826Z,4.30
2019-03-25T08:31:47.708Z,3.97
2019-03-25T08:34:17.477Z,3.77
2019-03-25T08:36:47.269Z,3.43
2019-03-25T08:39:17.101Z,3.43
2019-03-25T08:41:46.917Z,3.87
2019-03-25T08:44:16.772Z,3.10
2019-03-25T08:46:46.650Z,3.20
2019-03-25T08:49:16.587Z,2.57
2019-03-25T08:51:46.662Z,2.80
2019-03-25T08:54:16.468Z,3.50
2019-03-25T08:56:46.356Z,3.47
2019-03-25T08:59:16.319Z,3.00
2019-03-25T09:01:46.211Z,2.97
2019-03-25T09:04:16.052Z,2.73
2019-03-25T09:06:47.856Z,2.80
2019-03-25T09:09:17.446Z,3.00
2019-03-25T09:11:47.529Z,3.13
2019-03-25T09:14:17.445Z,2.90
2019-03-25T09:16:47.297Z,2.87
2019-03-25T09:19:17.157Z,2.83
2019-03-25T09:21:47.268Z,3.00
2019-03-25T09:24:17.283Z,2.57
2019-03-25T09:26:47.312Z,2.73
2019-03-25T09:29:17.135Z,3.30
2019-03-25T09:31:47.073Z,2.47
2019-03-25T09:34:16.889Z,2.80
2019-03-25T09:36:46.777Z,2.40
2019-03-25T09:39:16.607Z,2.97
2019-03-25T09:41:46.360Z,3.50
2019-03-25T09:44:16.387Z,3.00
2019-03-25T09:46:46.297Z,3.30
2019-03-25T09:49:16.214Z,3.43
2019-03-25T09:51:46.230Z,3.27
2019-03-25T09:54:16.089Z,3.37
2019-03-25T09:56:46.003Z,3.93
2019-03-25T09:59:15.828Z,4.03
2019-03-25T10:01:45.822Z,4.37
2019-03-25T10:04:15.748Z,3.80
2019-03-25T10:06:45.594Z,4.60
2019-03-25T10:09:15.502Z,4.47
2019-03-25T10:11:45.303Z,3.83
2019-03-25T10:14:15.150Z,4.07
2019-03-25T10:16:45.069Z,4.17
2019-03-25T10:19:14.940Z,4.40
2019-03-25T10:21:44.847Z,4.00
2019-03-25T10:24:15.028Z,4.60
2019-03-25T10:26:45.032Z,5.13
2019-03-25T10:29:14.892Z,4.07
2019-03-25T10:31:44.651Z,4.00
2019-03-25T10:34:14.477Z,4.30
2019-03-25T10:36:44.433Z,5.07
2019-03-25T10:39:14.201Z,4.80
2019-03-25T10:41:44.423Z,4.23
2019-03-25T10:44:14.281Z,4.30
2019-03-25T10:46:44.050Z,4.43
2019-03-25T10:49:16.126Z,4.43
2019-03-25T10:51:45.578Z,4.20
2019-03-25T10:54:15.421Z,4.30
2019-03-25T10:56:49.198Z,4.43
2019-03-25T10:59:16.918Z,4.00
2019-03-25T11:01:46.766Z,4.30
2019-03-25T11:04:16.900Z,4.40
2019-03-25T11:06:47.022Z,4.17
2019-03-25T11:09:16.910Z,5.10
2019-03-25T11:11:46.739Z,4.00
2019-03-25T11:14:16.663Z,4.33
2019-03-25T11:16:46.491Z,4.40
2019-03-25T11:19:16.303Z,4.60
2019-03-25T11:21:46.084Z,4.67
2019-03-25T11:24:16.077Z,4.60
2019-03-25T11:26:45.816Z,3.90
2019-03-25T11:29:15.601Z,4.20
2019-03-25T11:31:45.361Z,3.80
2019-03-25T11:34:15.168Z,3.93
2019-03-25T11:36:45.191Z,4.00
2019-03-25T11:39:14.927Z,3.50
2019-03-25T11:41:45.077Z,4.00
2019-03-25T11:44:15.073Z,4.13
2019-03-25T11:46:44.979Z,4.37
2019-03-25T11:49:14.794Z,3.50
2019-03-25T11:51:44.786Z,3.73
2019-03-25T11:54:14.946Z,3.40
2019-03-25T11:56:44.805Z,3.40
2019-03-25T11:59:18.493Z,3.30
2019-03-25T12:01:46.527Z,3.77
2019-03-25T12:04:16.363Z,3.80
2019-03-25T12:06:46.138Z,3.73
2019-03-25T12:09:15.973Z,3.27
2019-03-25T12:11:46.035Z,3.10
2019-03-25T12:14:15.946Z,3.13
2019-03-25T12:16:45.963Z,3.07
2019-03-25T12:19:15.762Z,3.00
2019-03-25T12:21:45.832Z,3.27
2019-03-25T12:24:16.072Z,3.30
2019-03-25T12:26:46.276Z,3.00
2019-03-25T12:29:16.199Z,3.13
2019-03-25T12:31:46.181Z,3.33
2019-03-25T12:34:16.126Z,2.50
2019-03-25T12:36:46.112Z,1.93
2019-03-25T12:39:16.119Z,2.20
2019-03-25T12:41:46.092Z,2.23
2019-03-25T12:44:15.997Z,2.83
2019-03-25T12:46:45.942Z,2.70
2019-03-25T12:49:15.785Z,2.53
2019-03-25T12:51:48.389Z,2.30
2019-03-25T12:54:17.628Z,2.27
2019-03-25T12:56:47.832Z,2.33
2019-03-25T12:59:17.758Z,2.33
2019-03-25T13:01:52.839Z,1.93
2019-03-25T13:04:19.175Z,2.13
2019-03-25T13:06:49.030Z,2.17
2019-03-25T13:09:18.942Z,2.47
2019-03-25T13:11:48.864Z,2.37
2019-03-25T13:14:18.962Z,2.90
2019-03-25T13:16:48.773Z,2.97
2019-03-25T13:19:18.682Z,2.80
2019-03-25T13:21:48.547Z,3.40
2019-03-25T13:24:18.443Z,3.10
2019-03-25T13:26:48.549Z,3.53
2019-03-25T13:29:18.412Z,3.43
2019-03-25T13:31:48.315Z,3.00
2019-03-25T13:34:18.232Z,3.17
2019-03-25T13:36:48.131Z,3.03
2019-03-25T13:39:18.076Z,3.37
2019-03-25T13:41:47.999Z,3.43
2019-03-25T13:44:18.048Z,2.80
2019-03-25T13:46:48.274Z,2.97
2019-03-25T13:49:18.376Z,3.00
2019-03-25T13:51:48.110Z,2.47
2019-03-25T13:54:18.019Z,2.63
2019-03-25T13:56:47.904Z,2.77
2019-03-25T13:59:17.673Z,2.63
2019-03-25T14:01:47.444Z,2.00
2019-03-25T14:04:17.589Z,1.93
2019-03-25T14:06:47.365Z,1.33
2019-03-25T14:09:17.486Z,2.23
2019-03-25T14:11:47.381Z,1.97
2019-03-25T14:14:17.190Z,2.30
2019-03-25T14:16:47.098Z,1.67
2019-03-25T14:19:16.949Z,1.73
2019-03-25T14:21:46.883Z,2.17
2019-03-25T14:24:16.962Z,2.07
2019-03-25T14:26:46.868Z,1.90
2019-03-25T14:29:16.715Z,1.77
2019-03-25T14:31:46.645Z,1.97
2019-03-25T14:34:16.559Z,2.23
2019-03-25T14:36:46.586Z,1.50
2019-03-25T14:39:16.478Z,1.73
2019-03-25T14:41:46.360Z,1.90
2019-03-25T14:44:16.203Z,2.40
2019-03-25T14:46:46.094Z,2.20
2019-03-25T14:49:15.931Z,2.13
2019-03-25T14:51:46.068Z,1.40
2019-03-25T14:54:16.009Z,2.00
2019-03-25T14:56:46.142Z,2.20
2019-03-25T14:59:16.454Z,2.43
2019-03-25T15:01:46.323Z,3.30
2019-03-25T15:04:16.192Z,2.53
2019-03-25T15:06:46.045Z,2.70
2019-03-25T15:09:15.924Z,2.30
2019-03-25T15:11:45.825Z,1.50
2019-03-25T15:14:15.858Z,1.53
2019-03-25T15:16:46.205Z,1.37
2019-03-25T15:19:16.215Z,1.70
2019-03-25T15:21:46.300Z,1.70
2019-03-25T15:24:16.516Z,1.40
2019-03-25T15:26:46.420Z,1.33
2019-03-25T15:29:16.461Z,1.40
2019-03-25T15:31:46.300Z,1.40
2019-03-25T15:34:16.261Z,1.17
2019-03-25T15:36:46.177Z,1.13
2019-03-25T15:39:16.392Z,1.10
2019-03-25T15:41:47.339Z,1.20
2019-03-25T15:44:17.415Z,1.57
2019-03-25T15:46:55.313Z,1.20
2019-03-25T15:49:18.775Z,1.10
2019-03-25T15:51:48.650Z,1.07
2019-03-25T15:54:18.695Z,1.50
2019-03-25T15:56:48.688Z,1.33
2019-03-25T15:59:18.798Z,1.10
2019-03-25T16:01:48.838Z,0.77
2019-03-25T16:04:18.799Z,1.10
2019-03-25T16:06:49.595Z,1.00
2019-03-25T16:09:19.886Z,1.67
2019-03-25T16:11:49.864Z,1.33
2019-03-25T16:14:19.774Z,0.73
2019-03-25T16:16:49.773Z,0.90
2019-03-25T16:19:19.909Z,1.20
2019-03-25T16:21:50.124Z,1.00
2019-03-25T16:24:20.020Z,1.07
2019-03-25T16:26:50.112Z,0.80
2019-03-25T16:29:19.978Z,0.60
2019-03-25T16:31:49.866Z,0.50
2019-03-25T16:34:20.006Z,0.50
2019-03-25T16:36:49.965Z,0.50
2019-03-25T16:39:20.008Z,0.60
2019-03-25T16:41:49.862Z,0.70
2019-03-25T16:44:19.657Z,0.40
2019-03-25T16:46:49.589Z,0.30
2019-03-25T16:49:19.509Z,0.43
2019-03-25T16:51:49.624Z,0.60
2019-03-25T16:54:19.879Z,0.60
2019-03-25T16:56:49.943Z,0.40
2019-03-25T16:59:19.853Z,0.50
2019-03-25T17:01:49.822Z,0.50
2019-03-25T17:04:19.764Z,0.70
2019-03-25T17:06:49.810Z,0.50
2019-03-25T17:09:19.688Z,0.50
2019-03-25T17:11:49.670Z,0.50
2019-03-25T17:14:19.609Z,0.43
2019-03-25T17:16:49.734Z,0.57
2019-03-25T17:19:19.701Z,2.53
2019-03-25T17:21:57.682Z,0.90
2019-03-25T17:24:22.630Z,0.60
2019-03-25T17:26:53.445Z,0.80
2019-03-25T17:29:23.509Z,0.80
2019-03-25T17:31:53.354Z,0.47
2019-03-25T17:34:23.240Z,0.90
2019-03-25T17:36:53.078Z,0.70
2019-03-25T17:39:22.907Z,0.60
2019-03-25T17:41:52.992Z,1.07
2019-03-25T17:44:22.986Z,0.97
2019-03-25T17:46:52.853Z,0.93
2019-03-25T17:49:22.717Z,0.80
2019-03-25T17:51:52.632Z,1.00
2019-03-25T17:54:22.494Z,0.80
2019-03-25T17:56:52.269Z,1.10
2019-03-25T17:59:21.994Z,0.97
2019-03-25T18:01:51.876Z,1.03
2019-03-25T18:04:22.208Z,1.70
2019-03-25T18:06:52.130Z,30.70
2019-03-25T18:09:21.950Z,18.77
2019-03-25T18:11:52.331Z,8.50
2019-03-25T18:14:22.230Z,7.87
2019-03-25T18:16:52.227Z,8.93
2019-03-25T18:19:22.187Z,9.90
2019-03-25T18:21:52.691Z,3.97
2019-03-25T18:24:22.670Z,3.00
2019-03-25T18:26:52.679Z,2.00
2019-03-25T18:29:22.638Z,2.00
2019-03-25T18:31:52.529Z,1.60
2019-03-25T18:34:22.983Z,2.30
2019-03-25T18:36:52.912Z,2.40
2019-03-25T18:39:22.746Z,2.00
2019-03-25T18:41:52.742Z,1.87
2019-03-25T18:44:22.637Z,1.83
2019-03-25T18:46:52.658Z,2.10
2019-03-25T18:49:22.888Z,1.77
2019-03-25T18:51:52.933Z,2.03
2019-03-25T18:54:22.898Z,2.50
2019-03-25T18:56:52.882Z,1.77
2019-03-25T18:59:22.749Z,1.90
2019-03-25T19:01:54.713Z,1.73
2019-03-25T19:04:27.134Z,2.33
2019-03-25T19:06:56.432Z,1.73
2019-03-25T19:09:26.366Z,2.87
2019-03-25T19:11:56.610Z,2.20
2019-03-25T19:14:26.813Z,1.70
2019-03-25T19:16:56.754Z,1.80
2019-03-25T19:19:26.651Z,1.80
2019-03-25T19:21:56.653Z,1.40
2019-03-25T19:24:26.635Z,1.30
2019-03-25T19:26:57.288Z,1.77
2019-03-25T19:29:27.290Z,1.50
2019-03-25T19:32:06.266Z,1.33
2019-03-25T19:34:28.929Z,1.30
2019-03-25T19:36:58.897Z,1.50
2019-03-25T19:39:28.860Z,2.10
2019-03-25T19:41:59.018Z,1.50
2019-03-25T19:44:29.175Z,1.40
2019-03-25T19:46:59.097Z,1.37
2019-03-25T19:49:29.084Z,1.60
2019-03-25T19:51:59.095Z,1.20
2019-03-25T19:54:29.104Z,1.43
2019-03-25T19:56:59.217Z,1.00
2019-03-25T19:59:29.167Z,1.40
2019-03-25T20:01:59.170Z,1.00
2019-03-25T20:04:29.090Z,1.87
2019-03-25T20:06:59.065Z,1.60
2019-03-25T20:09:28.966Z,0.90
2019-03-25T20:11:58.805Z,1.00
2019-03-25T20:14:28.694Z,0.90
2019-03-25T20:16:58.724Z,1.00
2019-03-25T20:19:28.619Z,0.90
2019-03-25T20:21:58.589Z,1.10
2019-03-25T20:24:28.825Z,1.00
2019-03-25T20:26:58.911Z,0.80
2019-03-25T20:29:28.875Z,0.87
2019-03-25T20:31:59.004Z,0.90
2019-03-25T20:34:28.882Z,1.23
2019-03-25T20:36:58.944Z,1.10
2019-03-25T20:39:28.817Z,0.83
2019-03-25T20:41:58.869Z,0.97
2019-03-25T20:44:29.074Z,1.00
2019-03-25T20:46:58.973Z,1.00
2019-03-25T20:49:28.828Z,1.23
2019-03-25T20:51:59.276Z,1.10
2019-03-25T20:54:29.170Z,1.50
2019-03-25T20:56:59.118Z,1.10
2019-03-25T20:59:29.012Z,1.43
2019-03-25T21:01:58.903Z,1.00
2019-03-25T21:04:29.165Z,1.53
2019-03-25T21:06:59.200Z,1.90
2019-03-25T21:09:29.447Z,1.90
2019-03-25T21:11:59.437Z,1.97
2019-03-25T21:14:29.460Z,2.10
2019-03-25T21:16:59.404Z,2.30
2019-03-25T21:19:29.367Z,1.90
2019-03-25T21:21:59.551Z,2.80
2019-03-25T21:24:29.628Z,2.00
2019-03-25T21:26:59.680Z,3.10
2019-03-25T21:29:29.902Z,2.90
2019-03-25T21:32:00.054Z,2.00
2019-03-25T21:34:32.445Z,2.40
2019-03-25T21:37:05.510Z,2.23
2019-03-25T21:39:34.146Z,3.00
2019-03-25T21:42:04.182Z,2.57
2019-03-25T21:44:36.725Z,3.10
2019-03-25T21:47:06.817Z,3.30
2019-03-25T21:49:37.041Z,3.40
2019-03-25T21:52:06.964Z,3.83
2019-03-25T21:54:36.811Z,4.40
2019-03-25T21:57:06.721Z,5.23
2019-03-25T21:59:36.868Z,5.03
2019-03-25T22:02:06.802Z,6.27
2019-03-25T22:04:36.858Z,6.20
2019-03-25T22:07:06.839Z,6.17
2019-03-25T22:09:36.798Z,7.83
2019-03-25T22:12:09.166Z,7.23
2019-03-25T22:14:38.596Z,7.03
2019-03-25T22:17:08.516Z,8.63
2019-03-25T22:19:38.441Z,8.47
2019-03-25T22:22:08.533Z,8.87
2019-03-25T22:24:38.532Z,8.90
2019-03-25T22:27:08.400Z,8.50
2019-03-25T22:29:38.148Z,6.73
2019-03-25T22:32:08.070Z,9.60
2019-03-25T22:34:37.993Z,9.23
2019-03-25T22:37:07.975Z,8.97
2019-03-25T22:39:37.765Z,9.07
2019-03-25T22:42:07.585Z,9.10
2019-03-25T22:44:37.585Z,8.83
2019-03-25T22:47:07.472Z,7.67
2019-03-25T22:49:37.345Z,8.03
2019-03-25T22:52:07.492Z,7.00
2019-03-25T22:54:37.257Z,8.17
2019-03-25T22:57:06.993Z,9.60
2019-03-25T22:59:36.804Z,7.50
2019-03-25T23:02:06.945Z,7.40
2019-03-25T23:04:36.762Z,8.53
2019-03-25T23:07:06.541Z,7.53
2019-03-25T23:09:36.500Z,6.60
2019-03-25T23:12:06.482Z,8.63
2019-03-25T23:14:36.543Z,8.53
2019-03-25T23:17:06.392Z,7.83
2019-03-25T23:19:38.650Z,8.40
2019-03-25T23:22:08.053Z,7.53
2019-03-25T23:24:37.941Z,7.63
2019-03-25T23:27:07.909Z,7.67
2019-03-25T23:29:37.698Z,7.67
2019-03-25T23:32:07.874Z,7.30
2019-03-25T23:34:37.732Z,7.03
2019-03-25T23:37:07.854Z,7.43
2019-03-25T23:39:37.668Z,6.87
2019-03-25T23:42:07.517Z,6.37
2019-03-25T23:44:37.418Z,7.20
2019-03-25T23:47:07.242Z,5.87
2019-03-25T23:49:37.063Z,7.07
2019-03-25T23:52:06.910Z,7.33
2019-03-25T23:54:36.848Z,7.40
2019-03-25T23:57:06.600Z,6.90
2019-03-25T23:59:36.711Z,7.53
